sensor_id;sensor_type;location;lat;lon;timestamp;P1;durP1;ratioP1;P2;durP2;ratioP2
53411;SDS011;39307;52.870;13.660;2023-02-01T00:00:24;15.57;;;3.95;;
53411;SDS011;39307;52.870;13.660;2023-02-01T00:02:50;19.50;;;4.45;;
53411;SDS011;39307;52.870;13.660;2023-02-01T00:05:16;19.30;;;4.07;;
53411;SDS011;39307;52.870;13.660;2023-02-01T00:07:42;19.17;;;5.07;;
53411;SDS011;39307;52.870;13.660;2023-02-01T00:10:12;18.73;;;4.40;;
53411;SDS011;39307;52.870;13.660;2023-02-01T00:12:38;19.08;;;4.63;;
53411;SDS011;39307;52.870;13.660;2023-02-01T00:15:05;19.92;;;4.43;;
53411;SDS011;39307;52.870;13.660;2023-02-01T00:17:31;22.83;;;4.97;;
53411;SDS011;39307;52.870;13.660;2023-02-01T00:19:57;18.53;;;5.10;;
53411;SDS011;39307;52.870;13.660;2023-02-01T00:22:24;22.17;;;4.70;;
53411;SDS011;39307;52.870;13.660;2023-02-01T00:24:50;18.40;;;4.50;;
53411;SDS011;39307;52.870;13.660;2023-02-01T00:27:16;18.67;;;4.53;;
53411;SDS011;39307;52.870;13.660;2023-02-01T00:29:43;24.20;;;5.13;;
53411;SDS011;39307;52.870;13.660;2023-02-01T00:32:09;18.13;;;4.20;;
53411;SDS011;39307;52.870;13.660;2023-02-01T00:34:35;24.20;;;4.80;;
53411;SDS011;39307;52.870;13.660;2023-02-01T00:37:02;19.75;;;4.78;;
53411;SDS011;39307;52.870;13.660;2023-02-01T00:39:28;20.48;;;5.00;;
53411;SDS011;39307;52.870;13.660;2023-02-01T00:41:54;24.52;;;5.38;;
53411;SDS011;39307;52.870;13.660;2023-02-01T00:44:20;19.95;;;4.78;;
53411;SDS011;39307;52.870;13.660;2023-02-01T00:46:46;17.97;;;4.80;;
53411;SDS011;39307;52.870;13.660;2023-02-01T00:49:13;20.60;;;5.65;;
53411;SDS011;39307;52.870;13.660;2023-02-01T00:51:39;22.27;;;5.03;;
53411;SDS011;39307;52.870;13.660;2023-02-01T00:54:05;22.85;;;5.65;;
53411;SDS011;39307;52.870;13.660;2023-02-01T00:56:31;20.95;;;5.10;;
53411;SDS011;39307;52.870;13.660;2023-02-01T00:58:57;23.38;;;5.32;;
53411;SDS011;39307;52.870;13.660;2023-02-01T01:01:24;24.30;;;5.90;;
53411;SDS011;39307;52.870;13.660;2023-02-01T01:03:53;26.33;;;5.88;;
53411;SDS011;39307;52.870;13.660;2023-02-01T01:06:28;20.63;;;5.38;;
53411;SDS011;39307;52.870;13.660;2023-02-01T01:08:57;24.23;;;5.68;;
53411;SDS011;39307;52.870;13.660;2023-02-01T01:11:25;21.15;;;5.13;;
53411;SDS011;39307;52.870;13.660;2023-02-01T01:13:54;24.77;;;5.90;;
53411;SDS011;39307;52.870;13.660;2023-02-01T01:16:21;27.17;;;5.70;;
53411;SDS011;39307;52.870;13.660;2023-02-01T01:18:49;24.25;;;5.43;;
53411;SDS011;39307;52.870;13.660;2023-02-01T01:21:16;29.88;;;5.38;;
53411;SDS011;39307;52.870;13.660;2023-02-01T01:23:43;22.58;;;5.90;;
53411;SDS011;39307;52.870;13.660;2023-02-01T01:26:18;21.67;;;5.10;;
53411;SDS011;39307;52.870;13.660;2023-02-01T01:28:46;21.20;;;5.28;;
53411;SDS011;39307;52.870;13.660;2023-02-01T01:31:13;19.70;;;5.03;;
53411;SDS011;39307;52.870;13.660;2023-02-01T01:33:40;22.45;;;5.53;;
53411;SDS011;39307;52.870;13.660;2023-02-01T01:36:07;23.17;;;5.30;;
53411;SDS011;39307;52.870;13.660;2023-02-01T01:38:34;20.23;;;4.95;;
53411;SDS011;39307;52.870;13.660;2023-02-01T01:41:01;25.33;;;5.28;;
53411;SDS011;39307;52.870;13.660;2023-02-01T01:43:44;21.73;;;5.50;;
53411;SDS011;39307;52.870;13.660;2023-02-01T01:46:24;22.38;;;4.95;;
53411;SDS011;39307;52.870;13.660;2023-02-01T01:49:00;19.77;;;4.93;;
53411;SDS011;39307;52.870;13.660;2023-02-01T01:51:45;17.35;;;4.55;;
53411;SDS011;39307;52.870;13.660;2023-02-01T01:54:18;17.67;;;4.43;;
53411;SDS011;39307;52.870;13.660;2023-02-01T01:56:50;18.75;;;4.32;;
53411;SDS011;39307;52.870;13.660;2023-02-01T01:59:21;16.92;;;4.07;;
53411;SDS011;39307;52.870;13.660;2023-02-01T02:01:50;17.48;;;3.80;;
53411;SDS011;39307;52.870;13.660;2023-02-01T02:04:17;15.65;;;3.75;;
53411;SDS011;39307;52.870;13.660;2023-02-01T02:09:45;17.30;;;4.57;;
53411;SDS011;39307;52.870;13.660;2023-02-01T02:12:12;15.70;;;3.92;;
53411;SDS011;39307;52.870;13.660;2023-02-01T02:14:38;15.40;;;3.97;;
53411;SDS011;39307;52.870;13.660;2023-02-01T02:17:07;14.63;;;4.23;;
53411;SDS011;39307;52.870;13.660;2023-02-01T02:20:14;17.02;;;4.30;;
53411;SDS011;39307;52.870;13.660;2023-02-01T02:33:41;18.65;;;4.00;;
53411;SDS011;39307;52.870;13.660;2023-02-01T02:36:27;19.53;;;4.20;;
53411;SDS011;39307;52.870;13.660;2023-02-01T02:44:49;17.50;;;4.28;;
53411;SDS011;39307;52.870;13.660;2023-02-01T02:47:33;19.52;;;4.60;;
53411;SDS011;39307;52.870;13.660;2023-02-01T02:50:11;22.98;;;5.60;;
53411;SDS011;39307;52.870;13.660;2023-02-01T02:52:57;20.35;;;4.78;;
53411;SDS011;39307;52.870;13.660;2023-02-01T02:55:28;24.20;;;5.22;;
53411;SDS011;39307;52.870;13.660;2023-02-01T02:57:56;22.02;;;4.80;;
53411;SDS011;39307;52.870;13.660;2023-02-01T03:00:24;21.33;;;5.28;;
53411;SDS011;39307;52.870;13.660;2023-02-01T03:02:57;23.45;;;4.97;;
53411;SDS011;39307;52.870;13.660;2023-02-01T03:05:23;21.25;;;4.88;;
53411;SDS011;39307;52.870;13.660;2023-02-01T03:08:03;23.75;;;5.43;;
53411;SDS011;39307;52.870;13.660;2023-02-01T03:10:48;22.95;;;4.82;;
53411;SDS011;39307;52.870;13.660;2023-02-01T03:18:51;20.65;;;5.35;;
53411;SDS011;39307;52.870;13.660;2023-02-01T03:21:43;22.55;;;5.25;;
53411;SDS011;39307;52.870;13.660;2023-02-01T03:24:34;18.60;;;4.72;;
53411;SDS011;39307;52.870;13.660;2023-02-01T03:27:07;21.00;;;5.10;;
53411;SDS011;39307;52.870;13.660;2023-02-01T03:30:00;23.35;;;4.82;;
53411;SDS011;39307;52.870;13.660;2023-02-01T03:32:32;24.00;;;5.28;;
53411;SDS011;39307;52.870;13.660;2023-02-01T03:34:59;19.98;;;4.93;;
53411;SDS011;39307;52.870;13.660;2023-02-01T03:37:26;21.40;;;4.85;;
53411;SDS011;39307;52.870;13.660;2023-02-01T03:39:56;24.13;;;5.85;;
53411;SDS011;39307;52.870;13.660;2023-02-01T03:42:43;18.38;;;4.90;;
53411;SDS011;39307;52.870;13.660;2023-02-01T03:45:19;22.83;;;5.47;;
53411;SDS011;39307;52.870;13.660;2023-02-01T03:47:53;23.55;;;5.72;;
53411;SDS011;39307;52.870;13.660;2023-02-01T03:50:22;25.75;;;4.90;;
53411;SDS011;39307;52.870;13.660;2023-02-01T03:52:54;21.77;;;5.45;;
53411;SDS011;39307;52.870;13.660;2023-02-01T03:55:29;20.67;;;4.95;;
53411;SDS011;39307;52.870;13.660;2023-02-01T03:58:05;23.48;;;5.53;;
53411;SDS011;39307;52.870;13.660;2023-02-01T04:00:36;23.92;;;5.63;;
53411;SDS011;39307;52.870;13.660;2023-02-01T04:03:03;21.17;;;5.30;;
53411;SDS011;39307;52.870;13.660;2023-02-01T04:05:31;20.40;;;4.93;;
53411;SDS011;39307;52.870;13.660;2023-02-01T04:07:57;24.98;;;5.88;;
53411;SDS011;39307;52.870;13.660;2023-02-01T04:10:24;23.60;;;5.00;;
53411;SDS011;39307;52.870;13.660;2023-02-01T04:12:51;24.20;;;5.93;;
53411;SDS011;39307;52.870;13.660;2023-02-01T04:15:17;20.38;;;5.18;;
53411;SDS011;39307;52.870;13.660;2023-02-01T04:17:43;22.15;;;5.32;;
53411;SDS011;39307;52.870;13.660;2023-02-01T04:20:10;21.50;;;5.18;;
53411;SDS011;39307;52.870;13.660;2023-02-01T04:22:36;19.35;;;5.57;;
53411;SDS011;39307;52.870;13.660;2023-02-01T04:25:03;24.02;;;5.72;;
53411;SDS011;39307;52.870;13.660;2023-02-01T04:27:29;26.00;;;5.82;;
53411;SDS011;39307;52.870;13.660;2023-02-01T04:29:55;23.60;;;5.55;;
53411;SDS011;39307;52.870;13.660;2023-02-01T04:32:22;22.42;;;5.57;;
53411;SDS011;39307;52.870;13.660;2023-02-01T04:34:48;22.35;;;5.32;;
53411;SDS011;39307;52.870;13.660;2023-02-01T04:37:14;24.75;;;6.30;;
53411;SDS011;39307;52.870;13.660;2023-02-01T04:39:41;26.37;;;5.90;;
53411;SDS011;39307;52.870;13.660;2023-02-01T04:42:07;24.38;;;6.13;;
53411;SDS011;39307;52.870;13.660;2023-02-01T04:44:33;27.88;;;6.28;;
53411;SDS011;39307;52.870;13.660;2023-02-01T04:46:59;25.38;;;6.07;;
53411;SDS011;39307;52.870;13.660;2023-02-01T04:49:26;20.07;;;5.33;;
53411;SDS011;39307;52.870;13.660;2023-02-01T04:51:52;27.70;;;6.35;;
53411;SDS011;39307;52.870;13.660;2023-02-01T04:54:18;31.05;;;6.35;;
53411;SDS011;39307;52.870;13.660;2023-02-01T04:56:44;26.48;;;6.05;;
53411;SDS011;39307;52.870;13.660;2023-02-01T04:59:11;27.83;;;6.80;;
53411;SDS011;39307;52.870;13.660;2023-02-01T05:01:37;26.13;;;5.70;;
53411;SDS011;39307;52.870;13.660;2023-02-01T05:04:03;28.30;;;6.55;;
53411;SDS011;39307;52.870;13.660;2023-02-01T05:06:30;27.07;;;6.80;;
53411;SDS011;39307;52.870;13.660;2023-02-01T05:08:58;25.33;;;6.20;;
53411;SDS011;39307;52.870;13.660;2023-02-01T05:11:24;27.88;;;6.20;;
53411;SDS011;39307;52.870;13.660;2023-02-01T05:13:51;28.97;;;6.57;;
53411;SDS011;39307;52.870;13.660;2023-02-01T05:16:17;29.63;;;6.95;;
53411;SDS011;39307;52.870;13.660;2023-02-01T05:18:43;25.13;;;6.18;;
53411;SDS011;39307;52.870;13.660;2023-02-01T05:21:09;28.52;;;6.50;;
53411;SDS011;39307;52.870;13.660;2023-02-01T05:23:35;29.83;;;7.22;;
53411;SDS011;39307;52.870;13.660;2023-02-01T05:26:02;26.27;;;6.63;;
53411;SDS011;39307;52.870;13.660;2023-02-01T05:28:28;25.42;;;6.40;;
53411;SDS011;39307;52.870;13.660;2023-02-01T05:30:54;30.23;;;7.40;;
53411;SDS011;39307;52.870;13.660;2023-02-01T05:33:20;25.05;;;6.75;;
53411;SDS011;39307;52.870;13.660;2023-02-01T05:35:46;29.13;;;6.57;;
53411;SDS011;39307;52.870;13.660;2023-02-01T05:38:13;28.35;;;6.50;;
53411;SDS011;39307;52.870;13.660;2023-02-01T05:40:40;24.42;;;6.00;;
53411;SDS011;39307;52.870;13.660;2023-02-01T05:43:06;29.50;;;6.67;;
53411;SDS011;39307;52.870;13.660;2023-02-01T05:45:32;30.05;;;6.85;;
53411;SDS011;39307;52.870;13.660;2023-02-01T05:47:58;27.27;;;6.40;;
53411;SDS011;39307;52.870;13.660;2023-02-01T05:50:24;27.38;;;6.30;;
53411;SDS011;39307;52.870;13.660;2023-02-01T05:52:50;26.90;;;6.53;;
53411;SDS011;39307;52.870;13.660;2023-02-01T05:55:16;28.60;;;6.45;;
53411;SDS011;39307;52.870;13.660;2023-02-01T05:57:43;26.50;;;5.97;;
53411;SDS011;39307;52.870;13.660;2023-02-01T06:00:09;26.13;;;6.23;;
53411;SDS011;39307;52.870;13.660;2023-02-01T06:02:36;31.10;;;7.05;;
53411;SDS011;39307;52.870;13.660;2023-02-01T06:05:02;24.50;;;6.10;;
53411;SDS011;39307;52.870;13.660;2023-02-01T06:07:28;28.00;;;7.05;;
53411;SDS011;39307;52.870;13.660;2023-02-01T06:09:54;26.45;;;5.82;;
53411;SDS011;39307;52.870;13.660;2023-02-01T06:12:20;26.35;;;6.03;;
53411;SDS011;39307;52.870;13.660;2023-02-01T06:14:47;24.73;;;6.13;;
53411;SDS011;39307;52.870;13.660;2023-02-01T06:17:13;28.17;;;7.23;;
53411;SDS011;39307;52.870;13.660;2023-02-01T06:19:39;28.58;;;6.10;;
53411;SDS011;39307;52.870;13.660;2023-02-01T06:22:05;27.58;;;6.07;;
53411;SDS011;39307;52.870;13.660;2023-02-01T06:24:32;28.77;;;6.75;;
53411;SDS011;39307;52.870;13.660;2023-02-01T06:26:58;30.20;;;8.07;;
53411;SDS011;39307;52.870;13.660;2023-02-01T06:29:24;28.17;;;6.33;;
53411;SDS011;39307;52.870;13.660;2023-02-01T06:31:50;23.50;;;5.70;;
53411;SDS011;39307;52.870;13.660;2023-02-01T06:34:16;23.75;;;5.95;;
53411;SDS011;39307;52.870;13.660;2023-02-01T06:36:43;25.45;;;5.95;;
53411;SDS011;39307;52.870;13.660;2023-02-01T06:39:09;23.90;;;5.85;;
53411;SDS011;39307;52.870;13.660;2023-02-01T06:41:35;22.50;;;5.93;;
53411;SDS011;39307;52.870;13.660;2023-02-01T06:44:01;24.08;;;5.93;;
53411;SDS011;39307;52.870;13.660;2023-02-01T06:46:28;20.75;;;5.10;;
53411;SDS011;39307;52.870;13.660;2023-02-01T06:48:54;19.95;;;4.88;;
53411;SDS011;39307;52.870;13.660;2023-02-01T06:51:24;24.33;;;5.50;;
53411;SDS011;39307;52.870;13.660;2023-02-01T06:53:51;21.25;;;5.03;;
53411;SDS011;39307;52.870;13.660;2023-02-01T06:56:18;20.73;;;5.60;;
53411;SDS011;39307;52.870;13.660;2023-02-01T06:58:44;23.83;;;5.15;;
53411;SDS011;39307;52.870;13.660;2023-02-01T07:01:10;19.27;;;5.10;;
53411;SDS011;39307;52.870;13.660;2023-02-01T07:03:37;22.35;;;5.30;;
53411;SDS011;39307;52.870;13.660;2023-02-01T07:06:04;21.15;;;4.95;;
53411;SDS011;39307;52.870;13.660;2023-02-01T07:08:31;24.00;;;5.37;;
53411;SDS011;39307;52.870;13.660;2023-02-01T07:11:05;24.05;;;5.68;;
53411;SDS011;39307;52.870;13.660;2023-02-01T07:13:32;17.55;;;4.50;;
53411;SDS011;39307;52.870;13.660;2023-02-01T07:16:02;21.83;;;5.30;;
53411;SDS011;39307;52.870;13.660;2023-02-01T07:18:30;22.73;;;5.72;;
53411;SDS011;39307;52.870;13.660;2023-02-01T07:20:57;21.17;;;5.38;;
53411;SDS011;39307;52.870;13.660;2023-02-01T07:23:24;20.20;;;5.05;;
53411;SDS011;39307;52.870;13.660;2023-02-01T07:25:57;19.48;;;5.30;;
53411;SDS011;39307;52.870;13.660;2023-02-01T07:28:26;18.02;;;5.15;;
53411;SDS011;39307;52.870;13.660;2023-02-01T07:30:55;21.45;;;6.20;;
53411;SDS011;39307;52.870;13.660;2023-02-01T07:33:28;21.65;;;5.40;;
53411;SDS011;39307;52.870;13.660;2023-02-01T07:35:54;25.20;;;5.87;;
53411;SDS011;39307;52.870;13.660;2023-02-01T07:38:20;20.23;;;5.75;;
53411;SDS011;39307;52.870;13.660;2023-02-01T07:40:46;20.70;;;5.40;;
53411;SDS011;39307;52.870;13.660;2023-02-01T07:43:13;25.00;;;5.93;;
53411;SDS011;39307;52.870;13.660;2023-02-01T07:45:39;16.83;;;4.93;;
53411;SDS011;39307;52.870;13.660;2023-02-01T07:48:06;21.40;;;5.47;;
53411;SDS011;39307;52.870;13.660;2023-02-01T07:50:33;20.90;;;5.03;;
53411;SDS011;39307;52.870;13.660;2023-02-01T07:53:00;19.07;;;5.10;;
53411;SDS011;39307;52.870;13.660;2023-02-01T07:55:26;19.88;;;5.72;;
53411;SDS011;39307;52.870;13.660;2023-02-01T07:57:52;23.80;;;5.63;;
53411;SDS011;39307;52.870;13.660;2023-02-01T08:00:22;23.00;;;5.10;;
53411;SDS011;39307;52.870;13.660;2023-02-01T08:02:48;22.33;;;5.40;;
53411;SDS011;39307;52.870;13.660;2023-02-01T08:05:14;25.65;;;5.10;;
53411;SDS011;39307;52.870;13.660;2023-02-01T08:07:41;19.10;;;5.00;;
53411;SDS011;39307;52.870;13.660;2023-02-01T08:10:07;19.75;;;5.22;;
53411;SDS011;39307;52.870;13.660;2023-02-01T08:12:34;16.60;;;4.47;;
53411;SDS011;39307;52.870;13.660;2023-02-01T08:15:00;18.80;;;4.75;;
53411;SDS011;39307;52.870;13.660;2023-02-01T08:17:26;23.63;;;5.30;;
53411;SDS011;39307;52.870;13.660;2023-02-01T08:19:52;17.40;;;3.95;;
53411;SDS011;39307;52.870;13.660;2023-02-01T08:22:19;14.60;;;3.85;;
53411;SDS011;39307;52.870;13.660;2023-02-01T08:24:47;18.95;;;4.40;;
53411;SDS011;39307;52.870;13.660;2023-02-01T08:27:14;12.93;;;4.18;;
53411;SDS011;39307;52.870;13.660;2023-02-01T08:29:40;17.05;;;4.45;;
53411;SDS011;39307;52.870;13.660;2023-02-01T08:32:07;15.00;;;4.03;;
53411;SDS011;39307;52.870;13.660;2023-02-01T08:34:33;14.88;;;3.97;;
53411;SDS011;39307;52.870;13.660;2023-02-01T08:36:59;14.52;;;4.00;;
53411;SDS011;39307;52.870;13.660;2023-02-01T08:39:25;13.23;;;4.00;;
53411;SDS011;39307;52.870;13.660;2023-02-01T08:41:52;16.52;;;3.47;;
53411;SDS011;39307;52.870;13.660;2023-02-01T08:44:18;15.35;;;3.85;;
53411;SDS011;39307;52.870;13.660;2023-02-01T08:46:44;14.83;;;3.50;;
53411;SDS011;39307;52.870;13.660;2023-02-01T08:49:10;14.30;;;3.78;;
53411;SDS011;39307;52.870;13.660;2023-02-01T08:51:37;13.73;;;3.53;;
53411;SDS011;39307;52.870;13.660;2023-02-01T08:54:03;12.27;;;3.35;;
53411;SDS011;39307;52.870;13.660;2023-02-01T08:56:29;11.18;;;2.70;;
53411;SDS011;39307;52.870;13.660;2023-02-01T08:58:55;11.82;;;2.92;;
53411;SDS011;39307;52.870;13.660;2023-02-01T09:01:21;12.97;;;2.80;;
53411;SDS011;39307;52.870;13.660;2023-02-01T09:03:47;8.50;;;2.20;;
53411;SDS011;39307;52.870;13.660;2023-02-01T09:06:14;9.63;;;2.25;;
53411;SDS011;39307;52.870;13.660;2023-02-01T09:08:40;9.10;;;2.13;;
53411;SDS011;39307;52.870;13.660;2023-02-01T09:11:10;6.35;;;1.67;;
53411;SDS011;39307;52.870;13.660;2023-02-01T09:13:39;5.72;;;1.65;;
53411;SDS011;39307;52.870;13.660;2023-02-01T09:16:05;5.80;;;1.50;;
53411;SDS011;39307;52.870;13.660;2023-02-01T09:18:32;6.40;;;1.55;;
53411;SDS011;39307;52.870;13.660;2023-02-01T09:20:58;5.38;;;1.42;;
53411;SDS011;39307;52.870;13.660;2023-02-01T09:23:24;4.47;;;1.30;;
53411;SDS011;39307;52.870;13.660;2023-02-01T09:25:50;3.67;;;1.38;;
53411;SDS011;39307;52.870;13.660;2023-02-01T09:28:17;3.58;;;1.00;;
53411;SDS011;39307;52.870;13.660;2023-02-01T09:30:44;2.08;;;0.68;;
53411;SDS011;39307;52.870;13.660;2023-02-01T09:33:10;3.70;;;1.00;;
53411;SDS011;39307;52.870;13.660;2023-02-01T09:35:36;3.25;;;0.90;;
53411;SDS011;39307;52.870;13.660;2023-02-01T09:38:03;2.55;;;0.70;;
53411;SDS011;39307;52.870;13.660;2023-02-01T09:40:29;4.80;;;1.00;;
53411;SDS011;39307;52.870;13.660;2023-02-01T09:43:00;3.67;;;0.85;;
53411;SDS011;39307;52.870;13.660;2023-02-01T09:48:36;3.58;;;0.93;;
53411;SDS011;39307;52.870;13.660;2023-02-01T09:51:16;3.58;;;0.90;;
53411;SDS011;39307;52.870;13.660;2023-02-01T09:54:06;2.92;;;0.98;;
53411;SDS011;39307;52.870;13.660;2023-02-01T09:59:38;4.38;;;1.38;;
53411;SDS011;39307;52.870;13.660;2023-02-01T10:02:21;5.65;;;1.60;;
53411;SDS011;39307;52.870;13.660;2023-02-01T10:04:50;6.15;;;1.23;;
53411;SDS011;39307;52.870;13.660;2023-02-01T10:10:20;6.43;;;1.40;;
53411;SDS011;39307;52.870;13.660;2023-02-01T10:19:19;4.63;;;1.60;;
53411;SDS011;39307;52.870;13.660;2023-02-01T10:22:00;7.82;;;1.65;;
53411;SDS011;39307;52.870;13.660;2023-02-01T10:24:47;6.20;;;1.70;;
53411;SDS011;39307;52.870;13.660;2023-02-01T10:27:37;6.78;;;1.85;;
53411;SDS011;39307;52.870;13.660;2023-02-01T10:30:06;6.13;;;1.70;;
53411;SDS011;39307;52.870;13.660;2023-02-01T10:32:52;6.90;;;1.80;;
53411;SDS011;39307;52.870;13.660;2023-02-01T10:35:24;6.55;;;1.80;;
53411;SDS011;39307;52.870;13.660;2023-02-01T10:37:55;8.17;;;1.77;;
53411;SDS011;39307;52.870;13.660;2023-02-01T10:40:26;7.40;;;2.20;;
53411;SDS011;39307;52.870;13.660;2023-02-01T10:42:53;8.57;;;2.00;;
53411;SDS011;39307;52.870;13.660;2023-02-01T10:45:24;9.77;;;2.00;;
53411;SDS011;39307;52.870;13.660;2023-02-01T10:47:53;6.68;;;1.70;;
53411;SDS011;39307;52.870;13.660;2023-02-01T10:50:27;9.33;;;2.00;;
53411;SDS011;39307;52.870;13.660;2023-02-01T10:53:24;10.57;;;2.03;;
53411;SDS011;39307;52.870;13.660;2023-02-01T10:55:56;8.10;;;1.95;;
53411;SDS011;39307;52.870;13.660;2023-02-01T10:58:29;8.43;;;1.60;;
53411;SDS011;39307;52.870;13.660;2023-02-01T11:00:57;8.00;;;2.07;;
53411;SDS011;39307;52.870;13.660;2023-02-01T11:03:32;7.75;;;1.90;;
53411;SDS011;39307;52.870;13.660;2023-02-01T11:05:58;7.63;;;1.80;;
53411;SDS011;39307;52.870;13.660;2023-02-01T11:08:25;6.40;;;1.92;;
53411;SDS011;39307;52.870;13.660;2023-02-01T11:10:59;10.05;;;2.72;;
53411;SDS011;39307;52.870;13.660;2023-02-01T11:13:31;8.85;;;2.33;;
53411;SDS011;39307;52.870;13.660;2023-02-01T11:15:58;9.73;;;2.20;;
53411;SDS011;39307;52.870;13.660;2023-02-01T11:18:30;8.70;;;2.20;;
53411;SDS011;39307;52.870;13.660;2023-02-01T11:21:01;11.27;;;2.85;;
53411;SDS011;39307;52.870;13.660;2023-02-01T11:23:28;11.45;;;2.42;;
53411;SDS011;39307;52.870;13.660;2023-02-01T11:25:57;7.93;;;2.40;;
53411;SDS011;39307;52.870;13.660;2023-02-01T11:28:29;8.93;;;2.50;;
53411;SDS011;39307;52.870;13.660;2023-02-01T11:31:02;10.10;;;2.53;;
53411;SDS011;39307;52.870;13.660;2023-02-01T11:33:31;12.07;;;2.58;;
53411;SDS011;39307;52.870;13.660;2023-02-01T11:36:10;10.38;;;2.50;;
53411;SDS011;39307;52.870;13.660;2023-02-01T11:38:46;9.05;;;2.42;;
53411;SDS011;39307;52.870;13.660;2023-02-01T11:41:33;10.77;;;2.58;;
53411;SDS011;39307;52.870;13.660;2023-02-01T11:44:00;10.18;;;2.50;;
53411;SDS011;39307;52.870;13.660;2023-02-01T11:46:31;11.00;;;2.58;;
53411;SDS011;39307;52.870;13.660;2023-02-01T11:49:14;11.80;;;2.55;;
53411;SDS011;39307;52.870;13.660;2023-02-01T11:51:54;11.18;;;2.58;;
53411;SDS011;39307;52.870;13.660;2023-02-01T11:57:54;11.27;;;2.60;;
53411;SDS011;39307;52.870;13.660;2023-02-01T12:06:28;13.77;;;2.80;;
53411;SDS011;39307;52.870;13.660;2023-02-01T12:11:41;10.55;;;2.60;;
53411;SDS011;39307;52.870;13.660;2023-02-01T12:24:58;9.05;;;2.13;;
53411;SDS011;39307;52.870;13.660;2023-02-01T12:27:50;5.28;;;1.30;;
53411;SDS011;39307;52.870;13.660;2023-02-01T12:30:50;6.43;;;1.40;;
53411;SDS011;39307;52.870;13.660;2023-02-01T12:36:19;6.90;;;1.70;;
53411;SDS011;39307;52.870;13.660;2023-02-01T12:42:01;12.82;;;2.95;;
53411;SDS011;39307;52.870;13.660;2023-02-01T12:44:50;10.65;;;2.50;;
53411;SDS011;39307;52.870;13.660;2023-02-01T12:50:24;10.80;;;2.55;;
53411;SDS011;39307;52.870;13.660;2023-02-01T12:53:15;9.30;;;2.38;;
53411;SDS011;39307;52.870;13.660;2023-02-01T12:55:50;10.30;;;2.28;;
53411;SDS011;39307;52.870;13.660;2023-02-01T12:58:33;6.85;;;1.50;;
53411;SDS011;39307;52.870;13.660;2023-02-01T13:01:17;8.18;;;1.80;;
53411;SDS011;39307;52.870;13.660;2023-02-01T13:03:57;7.45;;;1.70;;
53411;SDS011;39307;52.870;13.660;2023-02-01T13:06:34;6.78;;;1.52;;
53411;SDS011;39307;52.870;13.660;2023-02-01T13:09:15;7.72;;;1.55;;
53411;SDS011;39307;52.870;13.660;2023-02-01T13:11:49;5.72;;;1.50;;
53411;SDS011;39307;52.870;13.660;2023-02-01T13:17:11;7.35;;;1.70;;
53411;SDS011;39307;52.870;13.660;2023-02-01T13:24:57;5.40;;;1.40;;
53411;SDS011;39307;52.870;13.660;2023-02-01T13:27:27;6.38;;;1.30;;
53411;SDS011;39307;52.870;13.660;2023-02-01T13:29:56;5.53;;;1.33;;
53411;SDS011;39307;52.870;13.660;2023-02-01T13:32:36;5.88;;;1.20;;
53411;SDS011;39307;52.870;13.660;2023-02-01T13:35:28;6.90;;;1.27;;
53411;SDS011;39307;52.870;13.660;2023-02-01T13:44:05;6.47;;;1.30;;
53411;SDS011;39307;52.870;13.660;2023-02-01T13:46:41;6.20;;;1.50;;
53411;SDS011;39307;52.870;13.660;2023-02-01T13:49:16;9.30;;;1.80;;
53411;SDS011;39307;52.870;13.660;2023-02-01T13:51:51;7.82;;;1.80;;
53411;SDS011;39307;52.870;13.660;2023-02-01T13:54:38;7.47;;;1.77;;
53411;SDS011;39307;52.870;13.660;2023-02-01T13:57:14;10.13;;;2.23;;
53411;SDS011;39307;52.870;13.660;2023-02-01T14:00:05;7.38;;;1.75;;
53411;SDS011;39307;52.870;13.660;2023-02-01T14:02:45;7.55;;;1.98;;
53411;SDS011;39307;52.870;13.660;2023-02-01T14:13:20;8.98;;;2.30;;
53411;SDS011;39307;52.870;13.660;2023-02-01T14:26:23;11.63;;;2.33;;
53411;SDS011;39307;52.870;13.660;2023-02-01T14:39:49;10.60;;;2.75;;
53411;SDS011;39307;52.870;13.660;2023-02-01T14:42:33;11.32;;;2.47;;
53411;SDS011;39307;52.870;13.660;2023-02-01T14:47:46;12.80;;;2.72;;
53411;SDS011;39307;52.870;13.660;2023-02-01T14:53:01;10.85;;;2.47;;
53411;SDS011;39307;52.870;13.660;2023-02-01T14:58:32;10.32;;;2.75;;
53411;SDS011;39307;52.870;13.660;2023-02-01T15:06:38;6.68;;;1.75;;
53411;SDS011;39307;52.870;13.660;2023-02-01T15:09:24;8.73;;;2.10;;
53411;SDS011;39307;52.870;13.660;2023-02-01T15:14:30;5.53;;;1.73;;
53411;SDS011;39307;52.870;13.660;2023-02-01T15:17:00;9.05;;;2.22;;
53411;SDS011;39307;52.870;13.660;2023-02-01T15:19:28;8.25;;;1.90;;
53411;SDS011;39307;52.870;13.660;2023-02-01T15:21:55;9.90;;;2.17;;
53411;SDS011;39307;52.870;13.660;2023-02-01T15:24:24;11.13;;;2.30;;
53411;SDS011;39307;52.870;13.660;2023-02-01T15:26:52;11.13;;;2.43;;
53411;SDS011;39307;52.870;13.660;2023-02-01T15:29:21;11.23;;;2.92;;
53411;SDS011;39307;52.870;13.660;2023-02-01T15:31:50;10.75;;;2.67;;
53411;SDS011;39307;52.870;13.660;2023-02-01T15:34:17;13.95;;;2.58;;
53411;SDS011;39307;52.870;13.660;2023-02-01T15:36:45;13.57;;;3.40;;
53411;SDS011;39307;52.870;13.660;2023-02-01T15:39:12;12.88;;;3.30;;
53411;SDS011;39307;52.870;13.660;2023-02-01T15:41:39;13.70;;;2.88;;
53411;SDS011;39307;52.870;13.660;2023-02-01T15:46:46;14.40;;;3.15;;
53411;SDS011;39307;52.870;13.660;2023-02-01T15:51:50;13.50;;;2.72;;
53411;SDS011;39307;52.870;13.660;2023-02-01T15:54:22;12.88;;;3.20;;
53411;SDS011;39307;52.870;13.660;2023-02-01T15:56:53;10.77;;;2.78;;
53411;SDS011;39307;52.870;13.660;2023-02-01T15:59:24;11.00;;;2.83;;
53411;SDS011;39307;52.870;13.660;2023-02-01T16:01:58;10.88;;;3.00;;
53411;SDS011;39307;52.870;13.660;2023-02-01T16:04:25;11.70;;;2.53;;
53411;SDS011;39307;52.870;13.660;2023-02-01T16:06:56;10.48;;;3.35;;
53411;SDS011;39307;52.870;13.660;2023-02-01T16:09:25;9.15;;;2.80;;
53411;SDS011;39307;52.870;13.660;2023-02-01T16:15:04;5.88;;;1.67;;
53411;SDS011;39307;52.870;13.660;2023-02-01T16:17:31;6.88;;;1.70;;
53411;SDS011;39307;52.870;13.660;2023-02-01T16:19:57;8.82;;;2.08;;
53411;SDS011;39307;52.870;13.660;2023-02-01T16:22:23;8.75;;;1.63;;
53411;SDS011;39307;52.870;13.660;2023-02-01T16:24:50;7.50;;;1.90;;
53411;SDS011;39307;52.870;13.660;2023-02-01T16:27:16;6.28;;;1.88;;
53411;SDS011;39307;52.870;13.660;2023-02-01T16:29:42;5.82;;;1.70;;
53411;SDS011;39307;52.870;13.660;2023-02-01T16:32:16;6.15;;;1.23;;
53411;SDS011;39307;52.870;13.660;2023-02-01T16:34:47;5.07;;;1.33;;
53411;SDS011;39307;52.870;13.660;2023-02-01T16:37:18;4.50;;;1.25;;
53411;SDS011;39307;52.870;13.660;2023-02-01T16:39:47;2.97;;;1.10;;
53411;SDS011;39307;52.870;13.660;2023-02-01T16:42:14;2.92;;;1.20;;
53411;SDS011;39307;52.870;13.660;2023-02-01T16:44:41;3.28;;;1.08;;
53411;SDS011;39307;52.870;13.660;2023-02-01T16:47:10;2.60;;;0.90;;
53411;SDS011;39307;52.870;13.660;2023-02-01T16:49:42;3.20;;;1.05;;
53411;SDS011;39307;52.870;13.660;2023-02-01T16:52:19;2.53;;;0.90;;
53411;SDS011;39307;52.870;13.660;2023-02-01T16:54:50;2.25;;;0.90;;
53411;SDS011;39307;52.870;13.660;2023-02-01T16:57:17;4.13;;;1.00;;
53411;SDS011;39307;52.870;13.660;2023-02-01T16:59:44;1.83;;;0.80;;
53411;SDS011;39307;52.870;13.660;2023-02-01T17:02:11;2.65;;;0.90;;
53411;SDS011;39307;52.870;13.660;2023-02-01T17:04:39;2.10;;;1.05;;